sensor_id;sensor_type;location;lat;lon;timestamp;temperature;humidity
22130;DHT22;11231;50.746;4.272;2023-06-04T00:00:48;16.60;80.70
22130;DHT22;11231;50.746;4.272;2023-06-04T00:03:14;16.60;80.80
22130;DHT22;11231;50.746;4.272;2023-06-04T00:05:40;16.60;80.80
22130;DHT22;11231;50.746;4.272;2023-06-04T00:08:05;16.70;81.10
22130;DHT22;11231;50.746;4.272;2023-06-04T00:10:31;16.60;81.00
22130;DHT22;11231;50.746;4.272;2023-06-04T00:12:59;16.60;81.20
22130;DHT22;11231;50.746;4.272;2023-06-04T00:15:25;16.50;81.90
22130;DHT22;11231;50.746;4.272;2023-06-04T00:17:51;16.50;81.70
22130;DHT22;11231;50.746;4.272;2023-06-04T00:20:18;16.50;81.80
22130;DHT22;11231;50.746;4.272;2023-06-04T00:22:44;16.50;82.00
22130;DHT22;11231;50.746;4.272;2023-06-04T00:25:10;16.50;81.90
22130;DHT22;11231;50.746;4.272;2023-06-04T00:27:36;16.40;83.70
22130;DHT22;11231;50.746;4.272;2023-06-04T00:30:03;16.30;83.90
22130;DHT22;11231;50.746;4.272;2023-06-04T00:32:29;16.20;84.30
22130;DHT22;11231;50.746;4.272;2023-06-04T00:34:55;16.00;84.80
22130;DHT22;11231;50.746;4.272;2023-06-04T00:37:23;16.00;86.00
22130;DHT22;11231;50.746;4.272;2023-06-04T00:39:50;15.90;85.50
22130;DHT22;11231;50.746;4.272;2023-06-04T00:42:16;15.80;86.40
22130;DHT22;11231;50.746;4.272;2023-06-04T00:44:42;15.70;86.50
22130;DHT22;11231;50.746;4.272;2023-06-04T00:47:16;15.60;86.70
22130;DHT22;11231;50.746;4.272;2023-06-04T00:49:42;15.60;87.40
22130;DHT22;11231;50.746;4.272;2023-06-04T00:52:09;15.50;88.00
22130;DHT22;11231;50.746;4.272;2023-06-04T00:54:36;15.40;88.00
22130;DHT22;11231;50.746;4.272;2023-06-04T00:57:02;15.40;88.60
22130;DHT22;11231;50.746;4.272;2023-06-04T00:59:31;15.30;89.70
22130;DHT22;11231;50.746;4.272;2023-06-04T01:02:02;15.30;89.70
22130;DHT22;11231;50.746;4.272;2023-06-04T01:07:27;15.40;89.50
22130;DHT22;11231;50.746;4.272;2023-06-04T01:09:56;15.50;88.70
22130;DHT22;11231;50.746;4.272;2023-06-04T01:12:22;15.50;88.60
22130;DHT22;11231;50.746;4.272;2023-06-04T01:14:48;15.60;88.30
22130;DHT22;11231;50.746;4.272;2023-06-04T01:17:25;15.60;88.60
22130;DHT22;11231;50.746;4.272;2023-06-04T01:22:36;15.60;89.00
22130;DHT22;11231;50.746;4.272;2023-06-04T01:25:17;15.50;89.00
22130;DHT22;11231;50.746;4.272;2023-06-04T01:27:54;15.50;89.20
22130;DHT22;11231;50.746;4.272;2023-06-04T01:30:26;15.50;89.20
22130;DHT22;11231;50.746;4.272;2023-06-04T01:32:54;15.50;89.30
22130;DHT22;11231;50.746;4.272;2023-06-04T01:35:21;15.40;90.00
22130;DHT22;11231;50.746;4.272;2023-06-04T01:37:47;15.30;90.30
22130;DHT22;11231;50.746;4.272;2023-06-04T01:40:14;15.20;90.70
22130;DHT22;11231;50.746;4.272;2023-06-04T01:42:41;15.00;91.40
22130;DHT22;11231;50.746;4.272;2023-06-04T01:45:08;15.00;91.80
22130;DHT22;11231;50.746;4.272;2023-06-04T01:47:34;14.90;92.30
22130;DHT22;11231;50.746;4.272;2023-06-04T01:50:03;14.90;92.40
22130;DHT22;11231;50.746;4.272;2023-06-04T01:52:29;14.90;92.20
22130;DHT22;11231;50.746;4.272;2023-06-04T01:54:55;15.10;92.00
22130;DHT22;11231;50.746;4.272;2023-06-04T01:57:24;15.10;91.90
22130;DHT22;11231;50.746;4.272;2023-06-04T01:59:50;15.10;92.10
22130;DHT22;11231;50.746;4.272;2023-06-04T02:02:16;15.00;92.50
22130;DHT22;11231;50.746;4.272;2023-06-04T02:04:42;14.80;92.90
22130;DHT22;11231;50.746;4.272;2023-06-04T02:07:09;14.90;92.70
22130;DHT22;11231;50.746;4.272;2023-06-04T02:09:35;14.90;92.60
22130;DHT22;11231;50.746;4.272;2023-06-04T02:12:01;14.80;92.90
22130;DHT22;11231;50.746;4.272;2023-06-04T02:14:27;14.80;92.80
22130;DHT22;11231;50.746;4.272;2023-06-04T02:16:53;14.90;92.70
22130;DHT22;11231;50.746;4.272;2023-06-04T02:19:24;14.90;93.00
22130;DHT22;11231;50.746;4.272;2023-06-04T02:21:52;15.00;92.90
22130;DHT22;11231;50.746;4.272;2023-06-04T02:24:18;15.00;93.10
22130;DHT22;11231;50.746;4.272;2023-06-04T02:26:43;14.80;93.40
22130;DHT22;11231;50.746;4.272;2023-06-04T02:29:09;14.90;93.40
22130;DHT22;11231;50.746;4.272;2023-06-04T02:31:35;14.70;93.80
22130;DHT22;11231;50.746;4.272;2023-06-04T02:34:01;14.70;94.10
22130;DHT22;11231;50.746;4.272;2023-06-04T02:36:30;14.70;94.40
22130;DHT22;11231;50.746;4.272;2023-06-04T02:38:56;14.50;95.00
22130;DHT22;11231;50.746;4.272;2023-06-04T02:41:23;14.50;95.30
22130;DHT22;11231;50.746;4.272;2023-06-04T02:43:48;14.50;95.60
22130;DHT22;11231;50.746;4.272;2023-06-04T02:46:14;14.40;96.30
22130;DHT22;11231;50.746;4.272;2023-06-04T02:48:40;14.20;96.90
22130;DHT22;11231;50.746;4.272;2023-06-04T02:51:06;14.20;97.50
22130;DHT22;11231;50.746;4.272;2023-06-04T02:53:36;14.20;97.90
22130;DHT22;11231;50.746;4.272;2023-06-04T02:56:02;14.30;97.90
22130;DHT22;11231;50.746;4.272;2023-06-04T02:58:27;14.30;98.40
22130;DHT22;11231;50.746;4.272;2023-06-04T03:00:54;14.30;98.50
22130;DHT22;11231;50.746;4.272;2023-06-04T03:03:21;14.30;98.70
22130;DHT22;11231;50.746;4.272;2023-06-04T03:05:47;14.30;99.10
22130;DHT22;11231;50.746;4.272;2023-06-04T03:08:13;14.30;99.50
22130;DHT22;11231;50.746;4.272;2023-06-04T03:10:39;14.20;99.90
22130;DHT22;11231;50.746;4.272;2023-06-04T03:13:05;14.30;99.90
22130;DHT22;11231;50.746;4.272;2023-06-04T03:15:31;14.20;99.90
22130;DHT22;11231;50.746;4.272;2023-06-04T03:17:56;14.10;99.90
22130;DHT22;11231;50.746;4.272;2023-06-04T03:20:22;14.10;99.90
22130;DHT22;11231;50.746;4.272;2023-06-04T03:22:51;14.00;99.90
22130;DHT22;11231;50.746;4.272;2023-06-04T03:25:17;14.00;99.90
22130;DHT22;11231;50.746;4.272;2023-06-04T03:27:42;14.10;99.90
22130;DHT22;11231;50.746;4.272;2023-06-04T03:30:09;14.00;99.90
22130;DHT22;11231;50.746;4.272;2023-06-04T03:32:53;13.90;99.90
22130;DHT22;11231;50.746;4.272;2023-06-04T03:35:19;14.10;99.90
22130;DHT22;11231;50.746;4.272;2023-06-04T03:37:45;13.90;99.90
22130;DHT22;11231;50.746;4.272;2023-06-04T03:40:12;13.90;99.90
22130;DHT22;11231;50.746;4.272;2023-06-04T03:42:41;13.90;99.90
22130;DHT22;11231;50.746;4.272;2023-06-04T03:45:08;13.90;99.90
22130;DHT22;11231;50.746;4.272;2023-06-04T03:47:36;13.90;99.90
22130;DHT22;11231;50.746;4.272;2023-06-04T03:50:02;13.90;99.90
22130;DHT22;11231;50.746;4.272;2023-06-04T03:52:28;13.90;99.90
22130;DHT22;11231;50.746;4.272;2023-06-04T03:54:57;13.90;99.90
22130;DHT22;11231;50.746;4.272;2023-06-04T03:57:23;14.00;99.90
22130;DHT22;11231;50.746;4.272;2023-06-04T03:59:49;14.00;99.90
22130;DHT22;11231;50.746;4.272;2023-06-04T04:02:16;14.00;99.90
22130;DHT22;11231;50.746;4.272;2023-06-04T04:04:44;14.00;99.90
22130;DHT22;11231;50.746;4.272;2023-06-04T04:07:10;14.00;99.90
22130;DHT22;11231;50.746;4.272;2023-06-04T04:09:36;14.10;99.90
22130;DHT22;11231;50.746;4.272;2023-06-04T04:12:03;14.10;99.90
22130;DHT22;11231;50.746;4.272;2023-06-04T04:14:30;14.10;99.90
22130;DHT22;11231;50.746;4.272;2023-06-04T04:16:56;14.10;99.90
22130;DHT22;11231;50.746;4.272;2023-06-04T04:19:22;14.20;99.90
22130;DHT22;11231;50.746;4.272;2023-06-04T04:21:48;14.20;99.90
22130;DHT22;11231;50.746;4.272;2023-06-04T04:24:23;14.40;99.90
22130;DHT22;11231;50.746;4.272;2023-06-04T04:26:49;14.40;99.90
22130;DHT22;11231;50.746;4.272;2023-06-04T04:29:22;14.30;99.90
22130;DHT22;11231;50.746;4.272;2023-06-04T04:31:50;14.30;99.90
22130;DHT22;11231;50.746;4.272;2023-06-04T04:34:17;14.70;99.90
22130;DHT22;11231;50.746;4.272;2023-06-04T04:36:43;15.60;99.90
22130;DHT22;11231;50.746;4.272;2023-06-04T04:39:10;16.70;99.90
22130;DHT22;11231;50.746;4.272;2023-06-04T04:41:37;17.40;99.90
22130;DHT22;11231;50.746;4.272;2023-06-04T04:44:04;18.00;99.90
22130;DHT22;11231;50.746;4.272;2023-06-04T04:46:31;18.80;99.90
22130;DHT22;11231;50.746;4.272;2023-06-04T04:48:57;19.40;99.90
22130;DHT22;11231;50.746;4.272;2023-06-04T04:51:23;20.00;99.90
22130;DHT22;11231;50.746;4.272;2023-06-04T04:53:51;20.00;99.90
22130;DHT22;11231;50.746;4.272;2023-06-04T04:56:17;20.30;99.90
22130;DHT22;11231;50.746;4.272;2023-06-04T04:58:47;20.90;99.90
22130;DHT22;11231;50.746;4.272;2023-06-04T05:01:13;21.40;99.10
22130;DHT22;11231;50.746;4.272;2023-06-04T05:03:41;22.00;97.30
22130;DHT22;11231;50.746;4.272;2023-06-04T05:06:08;22.20;95.70
22130;DHT22;11231;50.746;4.272;2023-06-04T05:08:34;23.10;94.40
22130;DHT22;11231;50.746;4.272;2023-06-04T05:10:59;23.20;93.50
22130;DHT22;11231;50.746;4.272;2023-06-04T05:13:25;23.10;92.70
22130;DHT22;11231;50.746;4.272;2023-06-04T05:15:57;23.70;92.30
22130;DHT22;11231;50.746;4.272;2023-06-04T05:18:26;24.30;91.20
22130;DHT22;11231;50.746;4.272;2023-06-04T05:20:58;23.90;89.50
22130;DHT22;11231;50.746;4.272;2023-06-04T05:23:26;23.30;90.00
22130;DHT22;11231;50.746;4.272;2023-06-04T05:25:52;23.90;90.50
22130;DHT22;11231;50.746;4.272;2023-06-04T05:28:19;24.10;88.70
22130;DHT22;11231;50.746;4.272;2023-06-04T05:30:46;23.90;89.50
22130;DHT22;11231;50.746;4.272;2023-06-04T05:33:14;24.40;87.90
22130;DHT22;11231;50.746;4.272;2023-06-04T05:35:53;24.20;87.10
22130;DHT22;11231;50.746;4.272;2023-06-04T05:38:24;23.90;88.10
22130;DHT22;11231;50.746;4.272;2023-06-04T05:40:59;24.50;88.50
22130;DHT22;11231;50.746;4.272;2023-06-04T05:43:30;24.70;87.30
22130;DHT22;11231;50.746;4.272;2023-06-04T05:45:56;24.30;86.60
22130;DHT22;11231;50.746;4.272;2023-06-04T05:48:22;23.90;87.40
22130;DHT22;11231;50.746;4.272;2023-06-04T05:50:47;24.40;85.10
22130;DHT22;11231;50.746;4.272;2023-06-04T05:53:14;23.90;86.90
22130;DHT22;11231;50.746;4.272;2023-06-04T05:55:41;23.80;88.00
22130;DHT22;11231;50.746;4.272;2023-06-04T05:58:06;23.90;86.80
22130;DHT22;11231;50.746;4.272;2023-06-04T06:00:33;24.30;86.70
22130;DHT22;11231;50.746;4.272;2023-06-04T06:03:00;24.30;86.00
22130;DHT22;11231;50.746;4.272;2023-06-04T06:05:40;24.80;85.40
22130;DHT22;11231;50.746;4.272;2023-06-04T06:08:06;24.60;84.10
22130;DHT22;11231;50.746;4.272;2023-06-04T06:10:32;24.30;85.10
22130;DHT22;11231;50.746;4.272;2023-06-04T06:12:58;24.00;84.80
22130;DHT22;11231;50.746;4.272;2023-06-04T06:15:26;23.90;84.80
22130;DHT22;11231;50.746;4.272;2023-06-04T06:17:52;24.20;85.30
22130;DHT22;11231;50.746;4.272;2023-06-04T06:20:18;23.90;85.10
22130;DHT22;11231;50.746;4.272;2023-06-04T06:22:45;24.30;85.90
22130;DHT22;11231;50.746;4.272;2023-06-04T06:25:12;24.60;83.00
22130;DHT22;11231;50.746;4.272;2023-06-04T06:27:42;24.50;83.50
22130;DHT22;11231;50.746;4.272;2023-06-04T06:30:11;24.80;83.40
22130;DHT22;11231;50.746;4.272;2023-06-04T06:32:37;25.10;82.80
22130;DHT22;11231;50.746;4.272;2023-06-04T06:35:04;25.40;79.40
22130;DHT22;11231;50.746;4.272;2023-06-04T06:37:29;25.20;79.90
22130;DHT22;11231;50.746;4.272;2023-06-04T06:39:55;24.90;79.40
22130;DHT22;11231;50.746;4.272;2023-06-04T06:42:21;25.90;81.40
22130;DHT22;11231;50.746;4.272;2023-06-04T06:44:49;25.90;78.80
22130;DHT22;11231;50.746;4.272;2023-06-04T06:47:14;25.50;76.40
22130;DHT22;11231;50.746;4.272;2023-06-04T06:49:40;25.10;78.00
22130;DHT22;11231;50.746;4.272;2023-06-04T06:52:06;25.00;79.10
22130;DHT22;11231;50.746;4.272;2023-06-04T06:54:32;24.80;79.50
22130;DHT22;11231;50.746;4.272;2023-06-04T06:56:58;24.80;79.50
22130;DHT22;11231;50.746;4.272;2023-06-04T06:59:24;25.10;78.10
22130;DHT22;11231;50.746;4.272;2023-06-04T07:01:51;24.80;76.70
22130;DHT22;11231;50.746;4.272;2023-06-04T07:04:16;24.20;77.80
22130;DHT22;11231;50.746;4.272;2023-06-04T07:06:43;24.00;78.60
22130;DHT22;11231;50.746;4.272;2023-06-04T07:09:09;24.90;78.70
22130;DHT22;11231;50.746;4.272;2023-06-04T07:11:35;25.40;77.70
22130;DHT22;11231;50.746;4.272;2023-06-04T07:14:01;26.00;75.30
22130;DHT22;11231;50.746;4.272;2023-06-04T07:16:29;26.10;73.80
22130;DHT22;11231;50.746;4.272;2023-06-04T07:18:55;27.70;73.80
22130;DHT22;11231;50.746;4.272;2023-06-04T07:21:21;29.50;69.90
22130;DHT22;11231;50.746;4.272;2023-06-04T07:23:49;30.10;68.30
22130;DHT22;11231;50.746;4.272;2023-06-04T07:26:19;28.90;66.40
22130;DHT22;11231;50.746;4.272;2023-06-04T07:28:44;28.30;67.20
22130;DHT22;11231;50.746;4.272;2023-06-04T07:31:10;28.30;69.30
22130;DHT22;11231;50.746;4.272;2023-06-04T07:33:37;28.50;66.80
22130;DHT22;11231;50.746;4.272;2023-06-04T07:36:12;28.00;66.30
22130;DHT22;11231;50.746;4.272;2023-06-04T07:38:38;27.40;66.80
22130;DHT22;11231;50.746;4.272;2023-06-04T07:41:04;27.40;66.80
22130;DHT22;11231;50.746;4.272;2023-06-04T07:43:30;26.90;67.40
22130;DHT22;11231;50.746;4.272;2023-06-04T07:45:56;27.00;68.60
22130;DHT22;11231;50.746;4.272;2023-06-04T07:48:21;27.80;66.60
22130;DHT22;11231;50.746;4.272;2023-06-04T07:50:47;27.80;64.20
22130;DHT22;11231;50.746;4.272;2023-06-04T07:53:13;27.20;65.00
22130;DHT22;11231;50.746;4.272;2023-06-04T07:55:39;26.70;66.00
22130;DHT22;11231;50.746;4.272;2023-06-04T07:58:04;28.10;66.80
22130;DHT22;11231;50.746;4.272;2023-06-04T08:00:30;28.70;63.70
22130;DHT22;11231;50.746;4.272;2023-06-04T08:02:56;29.40;63.50
22130;DHT22;11231;50.746;4.272;2023-06-04T08:05:22;29.90;62.40
22130;DHT22;11231;50.746;4.272;2023-06-04T08:07:48;30.30;60.70
22130;DHT22;11231;50.746;4.272;2023-06-04T08:10:14;29.80;60.90
22130;DHT22;11231;50.746;4.272;2023-06-04T08:12:40;30.20;61.40
22130;DHT22;11231;50.746;4.272;2023-06-04T08:15:06;29.70;60.70
22130;DHT22;11231;50.746;4.272;2023-06-04T08:17:32;30.00;61.30
22130;DHT22;11231;50.746;4.272;2023-06-04T08:19:58;29.60;61.70
22130;DHT22;11231;50.746;4.272;2023-06-04T08:22:24;29.60;60.40
22130;DHT22;11231;50.746;4.272;2023-06-04T08:24:49;29.50;62.50
22130;DHT22;11231;50.746;4.272;2023-06-04T08:27:15;29.40;60.00
22130;DHT22;11231;50.746;4.272;2023-06-04T08:29:43;28.80;60.00
22130;DHT22;11231;50.746;4.272;2023-06-04T08:32:08;28.80;61.40
22130;DHT22;11231;50.746;4.272;2023-06-04T08:34:34;28.70;61.60
22130;DHT22;11231;50.746;4.272;2023-06-04T08:37:00;28.80;61.00
22130;DHT22;11231;50.746;4.272;2023-06-04T08:39:26;28.60;60.10
22130;DHT22;11231;50.746;4.272;2023-06-04T08:41:55;29.40;61.60
22130;DHT22;11231;50.746;4.272;2023-06-04T08:44:22;31.00;61.20
22130;DHT22;11231;50.746;4.272;2023-06-04T08:46:51;30.90;58.80
22130;DHT22;11231;50.746;4.272;2023-06-04T08:49:22;30.40;58.20
22130;DHT22;11231;50.746;4.272;2023-06-04T08:51:48;31.20;60.00
22130;DHT22;11231;50.746;4.272;2023-06-04T08:54:14;32.00;58.40
22130;DHT22;11231;50.746;4.272;2023-06-04T08:56:43;31.60;56.60
22130;DHT22;11231;50.746;4.272;2023-06-04T08:59:10;30.90;56.60
22130;DHT22;11231;50.746;4.272;2023-06-04T09:01:36;30.10;57.80
22130;DHT22;11231;50.746;4.272;2023-06-04T09:04:06;30.30;59.40
22130;DHT22;11231;50.746;4.272;2023-06-04T09:06:32;29.80;58.00
22130;DHT22;11231;50.746;4.272;2023-06-04T09:08:59;29.60;57.00
22130;DHT22;11231;50.746;4.272;2023-06-04T09:11:54;29.50;59.10
22130;DHT22;11231;50.746;4.272;2023-06-04T09:14:20;29.50;56.80
22130;DHT22;11231;50.746;4.272;2023-06-04T09:16:48;29.50;57.20
22130;DHT22;11231;50.746;4.272;2023-06-04T09:19:15;29.70;57.40
22130;DHT22;11231;50.746;4.272;2023-06-04T09:21:50;30.30;56.50
22130;DHT22;11231;50.746;4.272;2023-06-04T09:24:17;29.90;56.30
22130;DHT22;11231;50.746;4.272;2023-06-04T09:26:43;29.70;56.10
22130;DHT22;11231;50.746;4.272;2023-06-04T09:29:09;30.50;57.30
22130;DHT22;11231;50.746;4.272;2023-06-04T09:31:34;30.30;56.30
22130;DHT22;11231;50.746;4.272;2023-06-04T09:34:04;30.40;57.90
22130;DHT22;11231;50.746;4.272;2023-06-04T09:36:34;30.80;57.60
22130;DHT22;11231;50.746;4.272;2023-06-04T09:39:02;31.40;55.60
22130;DHT22;11231;50.746;4.272;2023-06-04T09:41:29;31.40;54.80
22130;DHT22;11231;50.746;4.272;2023-06-04T09:44:02;31.50;54.90
22130;DHT22;11231;50.746;4.272;2023-06-04T09:46:31;30.90;54.90
22130;DHT22;11231;50.746;4.272;2023-06-04T09:49:01;30.90;54.70
22130;DHT22;11231;50.746;4.272;2023-06-04T09:51:28;31.40;54.80
22130;DHT22;11231;50.746;4.272;2023-06-04T09:53:55;31.30;53.30
22130;DHT22;11231;50.746;4.272;2023-06-04T09:56:24;31.60;55.00
22130;DHT22;11231;50.746;4.272;2023-06-04T09:58:59;31.40;52.70
22130;DHT22;11231;50.746;4.272;2023-06-04T10:01:29;30.50;55.00
22130;DHT22;11231;50.746;4.272;2023-06-04T10:03:58;30.30;54.00
22130;DHT22;11231;50.746;4.272;2023-06-04T10:06:30;30.00;54.30
22130;DHT22;11231;50.746;4.272;2023-06-04T10:08:59;30.00;55.30
22130;DHT22;11231;50.746;4.272;2023-06-04T10:11:35;30.00;53.70
22130;DHT22;11231;50.746;4.272;2023-06-04T10:16:37;31.30;53.80
22130;DHT22;11231;50.746;4.272;2023-06-04T10:19:07;30.60;54.80
22130;DHT22;11231;50.746;4.272;2023-06-04T10:21:33;30.30;54.60
22130;DHT22;11231;50.746;4.272;2023-06-04T10:24:00;30.30;53.10
22130;DHT22;11231;50.746;4.272;2023-06-04T10:26:26;30.00;54.10
22130;DHT22;11231;50.746;4.272;2023-06-04T10:28:53;29.50;53.70
22130;DHT22;11231;50.746;4.272;2023-06-04T10:31:18;29.20;53.90
22130;DHT22;11231;50.746;4.272;2023-06-04T10:33:45;29.50;53.40
22130;DHT22;11231;50.746;4.272;2023-06-04T10:36:22;30.90;55.40
22130;DHT22;11231;50.746;4.272;2023-06-04T10:38:50;31.00;52.10
22130;DHT22;11231;50.746;4.272;2023-06-04T10:41:17;30.30;53.20
22130;DHT22;11231;50.746;4.272;2023-06-04T10:43:45;30.50;53.20
22130;DHT22;11231;50.746;4.272;2023-06-04T10:46:14;30.90;51.40
22130;DHT22;11231;50.746;4.272;2023-06-04T10:48:47;30.90;51.20
22130;DHT22;11231;50.746;4.272;2023-06-04T10:51:14;29.90;52.00
22130;DHT22;11231;50.746;4.272;2023-06-04T10:53:40;29.50;51.10
22130;DHT22;11231;50.746;4.272;2023-06-04T10:56:06;29.20;52.40
22130;DHT22;11231;50.746;4.272;2023-06-04T10:58:35;29.90;52.70
22130;DHT22;11231;50.746;4.272;2023-06-04T11:01:01;30.40;52.60
22130;DHT22;11231;50.746;4.272;2023-06-04T11:03:39;30.50;51.80
22130;DHT22;11231;50.746;4.272;2023-06-04T11:06:15;30.90;51.40
22130;DHT22;11231;50.746;4.272;2023-06-04T11:08:42;30.20;51.90
22130;DHT22;11231;50.746;4.272;2023-06-04T11:11:15;30.10;51.70
22130;DHT22;11231;50.746;4.272;2023-06-04T11:13:42;31.20;51.90
22130;DHT22;11231;50.746;4.272;2023-06-04T11:16:21;32.40;51.80
22130;DHT22;11231;50.746;4.272;2023-06-04T11:18:56;31.80;48.80
22130;DHT22;11231;50.746;4.272;2023-06-04T11:21:23;31.90;48.70
22130;DHT22;11231;50.746;4.272;2023-06-04T11:23:49;32.00;48.90
22130;DHT22;11231;50.746;4.272;2023-06-04T11:26:20;32.60;49.30
22130;DHT22;11231;50.746;4.272;2023-06-04T11:28:49;33.90;51.10
22130;DHT22;11231;50.746;4.272;2023-06-04T11:31:15;32.50;48.20
22130;DHT22;11231;50.746;4.272;2023-06-04T11:33:45;31.50;50.10
22130;DHT22;11231;50.746;4.272;2023-06-04T11:36:22;31.20;49.80
22130;DHT22;11231;50.746;4.272;2023-06-04T11:39:06;30.50;50.60
22130;DHT22;11231;50.746;4.272;2023-06-04T11:41:36;30.20;51.20
22130;DHT22;11231;50.746;4.272;2023-06-04T11:44:04;30.50;51.80
22130;DHT22;11231;50.746;4.272;2023-06-04T11:46:32;31.30;50.70
22130;DHT22;11231;50.746;4.272;2023-06-04T11:48:58;32.10;50.80
22130;DHT22;11231;50.746;4.272;2023-06-04T11:51:24;32.20;48.70
22130;DHT22;11231;50.746;4.272;2023-06-04T11:53:50;31.60;47.60
22130;DHT22;11231;50.746;4.272;2023-06-04T11:56:16;31.60;48.60
22130;DHT22;11231;50.746;4.272;2023-06-04T11:58:42;31.80;48.40
22130;DHT22;11231;50.746;4.272;2023-06-04T12:01:09;31.70;48.30
22130;DHT22;11231;50.746;4.272;2023-06-04T12:03:40;31.20;48.80
22130;DHT22;11231;50.746;4.272;2023-06-04T12:06:24;30.30;51.50
22130;DHT22;11231;50.746;4.272;2023-06-04T12:08:54;28.80;50.20
22130;DHT22;11231;50.746;4.272;2023-06-04T12:11:31;28.10;51.30
22130;DHT22;11231;50.746;4.272;2023-06-04T12:14:05;27.60;52.80
22130;DHT22;11231;50.746;4.272;2023-06-04T12:16:31;27.40;54.70
22130;DHT22;11231;50.746;4.272;2023-06-04T12:19:08;26.90;53.80
22130;DHT22;11231;50.746;4.272;2023-06-04T12:21:34;26.70;55.40
22130;DHT22;11231;50.746;4.272;2023-06-04T12:26:36;26.20;52.90
22130;DHT22;11231;50.746;4.272;2023-06-04T12:29:16;26.20;54.30
22130;DHT22;11231;50.746;4.272;2023-06-04T12:31:44;26.20;54.80
22130;DHT22;11231;50.746;4.272;2023-06-04T12:34:14;26.10;52.90
22130;DHT22;11231;50.746;4.272;2023-06-04T12:36:40;25.60;53.30
22130;DHT22;11231;50.746;4.272;2023-06-04T12:39:06;25.70;56.50
22130;DHT22;11231;50.746;4.272;2023-06-04T12:41:33;25.90;52.90
22130;DHT22;11231;50.746;4.272;2023-06-04T12:43:59;26.20;54.70
22130;DHT22;11231;50.746;4.272;2023-06-04T12:46:25;26.40;54.20
22130;DHT22;11231;50.746;4.272;2023-06-04T12:48:52;26.40;55.70
22130;DHT22;11231;50.746;4.272;2023-06-04T12:51:18;26.30;54.20
22130;DHT22;11231;50.746;4.272;2023-06-04T12:53:44;26.40;53.10
22130;DHT22;11231;50.746;4.272;2023-06-04T12:56:10;26.20;53.90
22130;DHT22;11231;50.746;4.272;2023-06-04T12:58:36;25.70;53.00
22130;DHT22;11231;50.746;4.272;2023-06-04T13:01:02;25.60;53.60
22130;DHT22;11231;50.746;4.272;2023-06-04T13:03:30;25.60;54.20
22130;DHT22;11231;50.746;4.272;2023-06-04T13:05:56;25.60;54.60
22130;DHT22;11231;50.746;4.272;2023-06-04T13:08:23;25.70;57.10
22130;DHT22;11231;50.746;4.272;2023-06-04T13:10:50;25.60;54.20
22130;DHT22;11231;50.746;4.272;2023-06-04T13:13:17;25.40;54.40
22130;DHT22;11231;50.746;4.272;2023-06-04T13:15:43;25.40;55.50
22130;DHT22;11231;50.746;4.272;2023-06-04T13:18:09;25.50;55.40
22130;DHT22;11231;50.746;4.272;2023-06-04T13:20:39;25.60;57.00
22130;DHT22;11231;50.746;4.272;2023-06-04T13:23:06;25.60;55.70
22130;DHT22;11231;50.746;4.272;2023-06-04T13:25:32;25.60;55.40
22130;DHT22;11231;50.746;4.272;2023-06-04T13:28:02;25.60;55.40
22130;DHT22;11231;50.746;4.272;2023-06-04T13:30:28;25.50;55.20
22130;DHT22;11231;50.746;4.272;2023-06-04T13:32:54;25.50;55.00
22130;DHT22;11231;50.746;4.272;2023-06-04T13:35:20;25.50;54.80
22130;DHT22;11231;50.746;4.272;2023-06-04T13:37:46;25.50;56.00
22130;DHT22;11231;50.746;4.272;2023-06-04T13:40:13;25.60;57.00
22130;DHT22;11231;50.746;4.272;2023-06-04T13:42:38;25.60;57.20
22130;DHT22;11231;50.746;4.272;2023-06-04T13:45:04;25.50;56.40
22130;DHT22;11231;50.746;4.272;2023-06-04T13:47:31;25.50;57.90
22130;DHT22;11231;50.746;4.272;2023-06-04T13:49:57;25.40;56.70
22130;DHT22;11231;50.746;4.272;2023-06-04T13:52:23;25.30;57.60
22130;DHT22;11231;50.746;4.272;2023-06-04T13:54:49;25.30;55.20
22130;DHT22;11231;50.746;4.272;2023-06-04T13:57:15;25.40;55.70
22130;DHT22;11231;50.746;4.272;2023-06-04T13:59:41;25.30;57.20
22130;DHT22;11231;50.746;4.272;2023-06-04T14:02:07;25.30;56.90
22130;DHT22;11231;50.746;4.272;2023-06-04T14:04:33;25.30;55.70
22130;DHT22;11231;50.746;4.272;2023-06-04T14:06:59;25.40;56.20
22130;DHT22;11231;50.746;4.272;2023-06-04T14:09:25;25.40;56.60
22130;DHT22;11231;50.746;4.272;2023-06-04T14:11:51;25.30;55.10
22130;DHT22;11231;50.746;4.272;2023-06-04T14:14:17;25.20;56.30
22130;DHT22;11231;50.746;4.272;2023-06-04T14:16:47;25.20;55.90
22130;DHT22;11231;50.746;4.272;2023-06-04T14:19:13;25.20;56.90
22130;DHT22;11231;50.746;4.272;2023-06-04T14:21:39;25.30;56.10
22130;DHT22;11231;50.746;4.272;2023-06-04T14:24:05;25.40;58.30
22130;DHT22;11231;50.746;4.272;2023-06-04T14:26:31;25.60;56.20
22130;DHT22;11231;50.746;4.272;2023-06-04T14:28:57;25.70;55.10
22130;DHT22;11231;50.746;4.272;2023-06-04T14:31:23;25.80;54.40
22130;DHT22;11231;50.746;4.272;2023-06-04T14:33:48;25.70;57.20
22130;DHT22;11231;50.746;4.272;2023-06-04T14:36:14;25.70;55.40
22130;DHT22;11231;50.746;4.272;2023-06-04T14:38:41;25.40;55.20
22130;DHT22;11231;50.746;4.272;2023-06-04T14:41:07;25.30;55.50
22130;DHT22;11231;50.746;4.272;2023-06-04T14:43:33;25.30;57.40
22130;DHT22;11231;50.746;4.272;2023-06-04T14:45:58;25.30;55.70
22130;DHT22;11231;50.746;4.272;2023-06-04T14:48:24;25.20;55.00
22130;DHT22;11231;50.746;4.272;2023-06-04T14:50:50;25.20;54.60
22130;DHT22;11231;50.746;4.272;2023-06-04T14:53:19;25.30;57.30
22130;DHT22;11231;50.746;4.272;2023-06-04T14:55:45;25.40;55.30
22130;DHT22;11231;50.746;4.272;2023-06-04T14:58:14;25.60;56.40
22130;DHT22;11231;50.746;4.272;2023-06-04T15:00:41;25.60;55.60
22130;DHT22;11231;50.746;4.272;2023-06-04T15:03:07;25.50;55.30
22130;DHT22;11231;50.746;4.272;2023-06-04T15:05:33;25.30;54.30
22130;DHT22;11231;50.746;4.272;2023-06-04T15:07:59;25.20;54.90
22130;DHT22;11231;50.746;4.272;2023-06-04T15:10:25;25.30;55.50
22130;DHT22;11231;50.746;4.272;2023-06-04T15:12:54;25.40;54.80
22130;DHT22;11231;50.746;4.272;2023-06-04T15:15:20;25.30;54.90
22130;DHT22;11231;50.746;4.272;2023-06-04T15:17:47;25.20;55.70
22130;DHT22;11231;50.746;4.272;2023-06-04T15:20:12;25.20;55.10
22130;DHT22;11231;50.746;4.272;2023-06-04T15:22:38;25.40;55.30
22130;DHT22;11231;50.746;4.272;2023-06-04T15:25:04;25.30;55.70
22130;DHT22;11231;50.746;4.272;2023-06-04T15:27:30;25.30;55.60
22130;DHT22;11231;50.746;4.272;2023-06-04T15:29:56;25.30;54.00
22130;DHT22;11231;50.746;4.272;2023-06-04T15:32:22;25.40;55.50
22130;DHT22;11231;50.746;4.272;2023-06-04T15:34:47;25.40;54.50
22130;DHT22;11231;50.746;4.272;2023-06-04T15:37:13;25.20;54.20
22130;DHT22;11231;50.746;4.272;2023-06-04T15:39:39;25.20;56.00
22130;DHT22;11231;50.746;4.272;2023-06-04T15:42:06;25.30;55.70